Time;durP1;ratioP1;P1;durP2;ratioP2;P2;SDS_P1;SDS_P2;PMS_P1;PMS_P2;Temp;Humidity;BMP_temperature;BMP_pressure;BME280_temperature;BME280_humidity;BME280_pressure;Samples;Min_cycle;Max_cycle;Signal;HPM_P1;HPM_P2
2022/12/28 00:01:17;;;;;;;34.20;17.30;;;;;;;1.34;83.57;99754.53;86613;1278;97834;-74
2022/12/28 00:03:19;;;;;;;27.10;16.10;;;;;;;1.31;83.59;99755.59;86893;1286;22856;-74
2022/12/28 00:05:21;;;;;;;32.20;17.20;;;;;;;1.27;83.62;99747.43;86685;1291;25501;-74
2022/12/28 00:07:23;;;;;;;37.80;17.80;;;;;;;1.24;83.59;99741.71;86535;1303;98738;-75
2022/12/28 00:09:25;;;;;;;31.00;16.60;;;;;;;1.20;83.77;99743.79;86693;1278;23878;-76
2022/12/28 00:11:27;;;;;;;30.60;16.30;;;;;;;1.18;83.73;99746.20;86750;1282;25226;-75
2022/12/28 00:13:30;;;;;;;30.60;16.10;;;;;;;1.16;83.74;99747.40;86695;1290;99139;-76
2022/12/28 00:15:32;;;;;;;26.90;15.70;;;;;;;1.15;83.91;99740.14;86803;1292;22768;-74
2022/12/28 00:17:33;;;;;;;36.50;17.20;;;;;;;1.13;83.85;99742.02;86774;1278;22481;-74
2022/12/28 00:19:35;;;;;;;29.50;16.50;;;;;;;1.13;84.20;99739.78;86616;1284;97894;-75
2022/12/28 00:21:37;;;;;;;27.90;15.20;;;;;;;1.13;83.92;99737.02;86681;1291;25331;-75
2022/12/28 00:23:39;;;;;;;37.50;16.00;;;;;;;1.12;83.71;99739.09;86445;1288;24325;-75
2022/12/28 00:25:40;;;;;;;30.30;17.00;;;;;;;1.12;84.00;99738.56;86639;1285;97708;-75
2022/12/28 00:27:42;;;;;;;35.20;16.50;;;;;;;1.11;83.73;99738.91;86629;1288;22783;-76
2022/12/28 00:29:44;;;;;;;30.40;17.50;;;;;;;1.10;84.02;99739.95;86766;1282;22813;-76
2022/12/28 00:31:45;;;;;;;32.20;17.00;;;;;;;1.10;83.81;99740.11;86629;1277;97625;-75
2022/12/28 00:33:47;;;;;;;33.30;17.40;;;;;;;1.08;84.14;99742.20;86658;1278;23110;-75
2022/12/28 00:35:57;;;;;;;32.80;17.10;;;;;;;1.08;84.02;99745.14;86628;1294;22605;-76
2022/12/28 00:37:58;;;;;;;33.30;15.50;;;;;;;1.07;84.01;99746.00;86607;1278;97504;-74
2022/12/28 00:40:00;;;;;;;36.10;16.30;;;;;;;1.07;84.03;99747.73;86648;1285;25393;-75
2022/12/28 00:42:02;;;;;;;27.80;16.20;;;;;;;1.06;83.97;99748.41;86579;1284;22474;-75
2022/12/28 00:44:04;;;;;;;36.00;17.00;;;;;;;1.05;83.84;99744.61;86699;1284;98900;-74
2022/12/28 00:46:06;;;;;;;33.50;16.50;;;;;;;1.04;83.98;99749.80;86654;1295;25490;-76
2022/12/28 00:48:07;;;;;;;33.10;15.10;;;;;;;1.01;84.04;99746.14;86662;1287;97689;-76
2022/12/28 00:50:09;;;;;;;30.70;16.40;;;;;;;1.01;84.05;99748.92;86730;1278;22516;-75
2022/12/28 00:52:11;;;;;;;30.10;16.60;;;;;;;1.00;84.25;99754.29;86660;1295;22677;-75
2022/12/28 00:54:12;;;;;;;35.50;17.10;;;;;;;0.96;84.15;99752.38;86534;1278;99683;-75
2022/12/28 00:56:17;;;;;;;37.10;17.80;;;;;;;0.94;83.96;99751.67;86692;1295;22496;-76
2022/12/28 00:58:19;;;;;;;34.50;17.40;;;;;;;0.90;84.00;99747.49;86680;1288;25585;-75
2022/12/28 01:00:21;;;;;;;31.50;15.90;;;;;;;0.85;83.80;99746.80;86622;1288;99411;-75
2022/12/28 01:02:22;;;;;;;33.20;16.10;;;;;;;0.82;84.27;99750.77;86884;1291;22548;-75
2022/12/28 01:04:24;;;;;;;32.00;16.10;;;;;;;0.79;83.91;99755.25;86681;1278;22672;-76
2022/12/28 01:06:27;;;;;;;31.40;16.40;;;;;;;0.73;84.21;99755.56;86596;1285;99077;-76
2022/12/28 01:08:29;;;;;;;27.30;16.50;;;;;;;0.70;83.98;99760.23;86541;1288;23417;-75
2022/12/28 01:10:31;;;;;;;31.70;15.20;;;;;;;0.64;84.08;99760.02;86598;1285;229043;-74
2022/12/28 01:12:32;;;;;;;24.00;14.40;;;;;;;0.58;83.92;99757.58;86574;1287;99705;-76
2022/12/28 01:14:34;;;;;;;27.40;15.60;;;;;;;0.52;83.84;99752.70;86744;1285;22715;-75
2022/12/28 01:16:38;;;;;;;27.20;15.70;;;;;;;0.46;83.98;99754.39;86651;1309;22528;-76
2022/12/28 01:18:39;;;;;;;33.50;16.60;;;;;;;0.42;83.89;99759.23;86675;1285;99320;-76
2022/12/28 01:20:41;;;;;;;30.20;15.80;;;;;;;0.39;83.98;99754.02;86571;1298;23018;-76
2022/12/28 01:22:43;;;;;;;24.30;16.30;;;;;;;0.35;83.77;99754.68;86828;1277;22491;-75
2022/12/28 01:24:44;;;;;;;25.40;16.00;;;;;;;0.29;83.76;99758.98;86722;1301;98837;-75
2022/12/28 01:26:46;;;;;;;26.20;16.30;;;;;;;0.24;83.82;99758.42;86855;1285;22665;-75
2022/12/28 01:28:48;;;;;;;30.90;15.90;;;;;;;0.16;83.74;99755.78;86918;1286;23464;-74
2022/12/28 01:30:50;;;;;;;33.90;16.60;;;;;;;0.15;83.90;99765.27;86873;1282;98204;-75
2022/12/28 01:32:52;;;;;;;30.20;15.30;;;;;;;0.13;84.01;99764.74;86851;1286;24361;-76
2022/12/28 01:34:53;;;;;;;24.90;15.30;;;;;;;0.10;83.99;99763.52;86711;1281;22517;-75
2022/12/28 01:36:55;;;;;;;26.60;14.80;;;;;;;0.08;84.15;99761.08;86731;1284;98793;-75
2022/12/28 01:38:59;;;;;;;28.90;16.20;;;;;;;0.07;84.26;99760.21;86837;1284;22474;-75
2022/12/28 01:41:05;;;;;;;22.30;15.10;;;;;;;0.07;84.20;99757.79;86863;1281;22561;-75
2022/12/28 01:43:14;;;;;;;24.20;15.20;;;;;;;0.08;84.08;99749.85;86998;1286;97582;-74
2022/12/28 01:45:20;;;;;;;28.60;15.30;;;;;;;0.07;84.15;99751.06;86832;1285;22531;-75
2022/12/28 01:47:31;;;;;;;32.20;15.80;;;;;;;0.08;84.54;99748.98;86777;1284;22620;-75
2022/12/28 01:49:41;;;;;;;29.80;15.60;;;;;;;0.09;84.30;99743.46;86597;1288;97695;-75
2022/12/28 01:51:50;;;;;;;21.70;14.30;;;;;;;0.09;84.29;99740.18;86753;1286;22555;-74
2022/12/28 01:53:54;;;;;;;31.10;14.60;;;;;;;0.09;84.39;99738.28;86632;1285;22472;-76
2022/12/28 01:55:57;;;;;;;26.00;14.40;;;;;;;0.09;84.47;99734.30;86822;1292;99198;-75
2022/12/28 01:58:06;;;;;;;25.20;14.60;;;;;;;0.06;84.43;99730.66;86739;1292;22951;-75
2022/12/28 02:00:11;;;;;;;26.10;14.10;;;;;;;0.05;84.44;99731.69;86734;1286;22615;-76
2022/12/28 02:02:14;;;;;;;25.20;13.10;;;;;;;-0.01;84.39;99725.77;86743;1284;22490;-76
2022/12/28 02:04:16;;;;;;;22.60;13.20;;;;;;;-0.05;84.11;99727.66;86750;1297;22874;-74
2022/12/28 02:06:18;;;;;;;24.40;12.70;;;;;;;-0.08;84.18;99727.30;86765;1284;99011;-74
2022/12/28 02:08:40;;;;;;;28.60;14.70;;;;;;;-0.13;84.28;99723.10;86761;1291;22882;-75
2022/12/28 02:10:42;;;;;;;;;;;;;;;-0.18;84.34;99724.10;86762;1285;25475;-74
2022/12/28 02:12:44;;;;;;;28.90;15.10;;;;;;;-0.23;84.25;99719.40;86828;1281;83798;-76
2022/12/28 02:14:46;;;;;;;28.20;15.40;;;;;;;-0.24;84.41;99719.91;86696;1295;22718;-76
2022/12/28 02:16:48;;;;;;;26.10;15.20;;;;;;;-0.25;84.33;99716.46;86657;1284;24360;-76
2022/12/28 02:18:51;;;;;;;24.10;14.10;;;;;;;-0.26;84.46;99716.79;86610;1285;99678;-76
2022/12/28 02:21:17;;;;;;;24.50;14.80;;;;;;;-0.31;84.56;99713.98;86750;1284;22571;-75
2022/12/28 02:23:57;;;;;;;29.30;15.20;;;;;;;-0.33;84.28;99716.91;86852;1281;22531;-75
2022/12/28 02:25:58;;;;;;;27.50;15.00;;;;;;;-0.40;84.41;99714.44;86798;1281;98366;-74
2022/12/28 02:28:42;;;;;;;25.50;15.40;;;;;;;-0.39;84.33;99722.73;86813;1285;22722;-75
2022/12/28 02:31:00;;;;;;;25.00;14.90;;;;;;;-0.48;84.50;99713.16;86577;1289;99004;-75
2022/12/28 02:33:26;;;;;;;24.50;15.10;;;;;;;-0.45;84.48;99724.58;86701;1289;22486;-75
2022/12/28 02:35:47;;;;;;;22.10;14.70;;;;;;;-0.49;84.40;99724.89;86877;1292;24307;-76
2022/12/28 02:38:00;;;;;;;30.20;16.00;;;;;;;-0.54;84.56;99723.98;86707;1285;98981;-76
2022/12/28 02:40:18;;;;;;;22.40;13.30;;;;;;;-0.57;84.43;99719.48;86897;1283;24218;-76
2022/12/28 02:42:22;;;;;;;26.00;14.50;;;;;;;-0.63;84.33;99713.20;86735;1288;98712;-76
2022/12/28 02:51:53;;;;;;;20.60;14.10;;;;;;;-0.88;84.18;99705.20;86945;1285;22489;-76
2022/12/28 02:56:49;;;;;;;24.30;15.30;;;;;;;-1.00;84.23;99700.77;86891;1282;22508;-77
2022/12/28 02:59:14;;;;;;;;;;;;;;;-1.04;84.28;99697.80;86725;1295;22462;-76
2022/12/28 03:01:53;;;;;;;31.90;16.60;;;;;;;-1.08;84.45;99684.65;86776;1281;84085;-77
2022/12/28 03:04:17;;;;;;;30.10;17.90;;;;;;;-1.10;84.48;99683.77;86973;1307;22471;-78
2022/12/28 03:09:18;;;;;;;25.30;16.90;;;;;;;-1.18;84.34;99677.13;87050;1295;22738;-77
2022/12/28 03:11:31;;;;;;;30.20;19.30;;;;;;;-1.19;84.39;99676.09;87141;1307;22529;-78
2022/12/28 03:13:42;;;;;;;33.10;18.70;;;;;;;-1.21;84.53;99666.73;87173;1292;98338;-77
2022/12/28 03:15:44;;;;;;;34.60;18.10;;;;;;;-1.23;84.43;99665.70;87037;1285;22480;-77
2022/12/28 03:32:20;;;;;;;32.90;19.10;;;;;;;-1.41;84.45;99656.02;87079;1282;23880;-77
2022/12/28 03:34:22;;;;;;;31.30;20.00;;;;;;;-1.44;84.53;99654.09;87004;1294;24322;-77
2022/12/28 03:36:33;;;;;;;33.40;19.80;;;;;;;-1.46;84.58;99654.23;87056;1310;98930;-78
2022/12/28 03:38:57;;;;;;;30.40;19.80;;;;;;;-1.46;84.60;99653.36;87029;1309;22422;-78
2022/12/28 03:41:08;;;;;;;28.30;19.00;;;;;;;-1.50;84.55;99652.11;87062;1313;22982;-78
2022/12/28 03:46:01;;;;;;;33.30;20.10;;;;;;;-1.55;84.59;99657.25;87142;1310;23751;-78
2022/12/28 03:48:04;;;;;;;38.10;20.70;;;;;;;-1.59;84.60;99654.44;87065;1316;23939;-78
2022/12/28 03:50:07;;;;;;;32.40;22.60;;;;;;;-1.59;84.61;99658.73;86731;1292;98526;-77
2022/12/28 03:52:10;;;;;;;38.70;23.50;;;;;;;-1.59;84.61;99660.12;86983;1310;25258;-77
2022/12/28 03:54:17;;;;;;;35.00;20.70;;;;;;;-1.60;84.63;99659.44;87159;1295;22465;-78
2022/12/28 03:56:25;;;;;;;31.50;21.30;;;;;;;-1.61;84.72;99665.44;87313;1295;22705;-78
2022/12/28 03:58:26;;;;;;;34.10;19.00;;;;;;;-1.64;84.66;99666.61;87094;1295;22776;-77
2022/12/28 04:00:29;;;;;;;33.90;20.50;;;;;;;-1.66;84.61;99665.54;87011;1307;97965;-79
2022/12/28 04:02:30;;;;;;;35.40;21.10;;;;;;;-1.69;84.67;99661.89;87132;1301;22638;-78
2022/12/28 04:04:32;;;;;;;37.00;20.10;;;;;;;-1.73;84.61;99654.43;87087;1277;22560;-78
2022/12/28 04:06:34;;;;;;;34.50;21.20;;;;;;;-1.71;84.65;99649.98;87069;1301;97863;-77
2022/12/28 04:08:36;;;;;;;38.90;21.20;;;;;;;-1.72;84.68;99650.14;87185;1295;23362;-78
2022/12/28 04:10:38;;;;;;;33.70;20.20;;;;;;;-1.73;84.69;99647.38;87129;1316;22443;-79
2022/12/28 04:12:40;;;;;;;35.10;21.30;;;;;;;-1.74;84.70;99652.36;87006;1313;98053;-78
2022/12/28 04:14:41;;;;;;;34.60;19.80;;;;;;;-1.74;84.67;99652.35;87123;1294;22501;-77
2022/12/28 04:16:43;;;;;;;32.80;20.70;;;;;;;-1.74;84.76;99650.12;87113;1315;22670;-78
2022/12/28 04:18:46;;;;;;;38.60;22.20;;;;;;;-1.74;84.78;99647.53;87095;1285;97702;-78
2022/12/28 04:20:47;;;;;;;36.20;21.50;;;;;;;-1.74;84.76;99648.58;87076;1285;22479;-77
2022/12/28 04:22:49;;;;;;;30.30;20.60;;;;;;;-1.74;84.75;99646.14;87072;1309;25629;-78
2022/12/28 04:24:51;;;;;;;32.60;21.10;;;;;;;-1.76;84.71;99638.91;86902;1311;99109;-78
2022/12/28 04:26:52;;;;;;;35.60;20.60;;;;;;;-1.78;84.66;99640.93;87066;1316;25273;-76
2022/12/28 04:28:59;;;;;;;36.60;20.30;;;;;;;-1.80;84.79;99636.10;87045;1316;23388;-77
2022/12/28 04:31:03;;;;;;;37.50;22.40;;;;;;;-1.80;84.71;99640.23;87062;1294;97964;-77
2022/12/28 04:33:05;;;;;;;37.90;22.10;;;;;;;-1.79;84.82;99637.83;87065;1291;22558;-78
2022/12/28 04:35:07;;;;;;;40.80;24.20;;;;;;;-1.82;84.86;99637.98;86974;1298;22489;-76
2022/12/28 04:37:09;;;;;;;45.10;27.30;;;;;;;-1.83;84.80;99633.65;86937;1294;98977;-76
2022/12/28 04:39:12;;;;;;;46.20;26.50;;;;;;;-1.83;84.84;99632.79;87036;1289;23876;-76
2022/12/28 04:41:13;;;;;;;43.00;28.40;;;;;;;-1.82;84.83;99632.27;86864;1288;22478;-77
2022/12/28 04:43:15;;;;;;;40.00;28.40;;;;;;;-1.82;84.88;99631.25;86961;1294;99617;-78
2022/12/28 04:45:17;;;;;;;45.90;28.20;;;;;;;-1.92;84.89;99615.10;87022;1295;22480;-77
2022/12/28 04:47:19;;;;;;;48.50;28.20;;;;;;;-1.83;84.82;99624.34;86917;1288;22488;-76
2022/12/28 04:49:21;;;;;;;47.80;28.40;;;;;;;-1.84;84.92;99626.73;86820;1297;98004;-77
2022/12/28 04:51:25;;;;;;;40.50;27.50;;;;;;;-1.83;84.87;99629.50;87058;1287;24378;-77
2022/12/28 04:53:26;;;;;;;35.90;25.60;;;;;;;-1.83;84.91;99633.30;87140;1309;22520;-76
2022/12/28 04:55:28;;;;;;;39.60;24.10;;;;;;;-1.88;84.78;99619.29;87019;1301;97896;-76
2022/12/28 04:57:30;;;;;;;42.80;25.70;;;;;;;-1.91;84.78;99615.80;87050;1293;22442;-76
2022/12/28 04:59:32;;;;;;;42.50;26.80;;;;;;;-1.94;84.75;99609.23;87149;1295;22655;-75
2022/12/28 05:01:35;;;;;;;40.40;26.20;;;;;;;-1.96;84.78;99603.52;87085;1290;99056;-76
2022/12/28 05:03:38;;;;;;;44.00;26.40;;;;;;;-1.97;84.86;99601.42;87217;1291;22447;-77
2022/12/28 05:05:40;;;;;;;39.30;24.30;;;;;;;-1.99;84.77;99603.82;87136;1292;22660;-78
2022/12/28 05:07:42;;;;;;;48.80;24.40;;;;;;;-2.04;84.81;99600.83;87008;1287;97688;-78
2022/12/28 05:09:43;;;;;;;36.00;24.60;;;;;;;-2.03;84.74;99605.49;87196;1304;22534;-77
2022/12/28 05:11:45;;;;;;;41.70;23.90;;;;;;;-2.05;84.76;99610.96;87229;1296;22623;-77
2022/12/28 05:13:47;;;;;;;43.80;24.00;;;;;;;-2.06;84.86;99606.15;87145;1285;98354;-78
2022/12/28 05:15:49;;;;;;;41.00;24.10;;;;;;;-2.05;84.90;99603.05;87031;1296;22764;-77
2022/12/28 05:17:51;;;;;;;39.30;24.80;;;;;;;-2.05;84.94;99602.52;87290;1291;22479;-78
2022/12/28 05:19:52;;;;;;;44.90;24.90;;;;;;;-2.04;84.83;99603.23;87121;1316;98927;-77
2022/12/28 05:21:54;;;;;;;34.40;22.70;;;;;;;-2.04;84.99;99602.54;87099;1296;22572;-77
2022/12/28 05:23:57;;;;;;;36.60;23.20;;;;;;;-2.05;84.88;99599.27;87100;1309;22619;-77
2022/12/28 05:25:59;;;;;;;32.60;21.50;;;;;;;-2.06;84.92;99602.18;87097;1284;98784;-78
2022/12/28 05:28:01;;;;;;;32.90;22.10;;;;;;;-2.07;84.88;99606.66;87223;1295;23084;-77
2022/12/28 05:30:03;;;;;;;31.00;21.00;;;;;;;-2.08;84.94;99613.00;87326;1317;22506;-78
2022/12/28 05:32:05;;;;;;;37.10;22.50;;;;;;;-2.09;85.06;99610.58;87168;1309;97693;-78
2022/12/28 05:34:07;;;;;;;32.30;20.80;;;;;;;-2.09;84.88;99610.93;87178;1293;22499;-78
2022/12/28 05:36:15;;;;;;;31.10;20.90;;;;;;;-2.10;84.98;99608.33;87423;1313;22635;-78
2022/12/28 05:38:17;;;;;;;30.20;20.00;;;;;;;-2.10;84.96;99605.05;87422;1293;98710;-78
2022/12/28 05:40:19;;;;;;;37.00;22.40;;;;;;;-2.10;85.00;99602.14;87570;1305;22537;-78
2022/12/28 05:42:20;;;;;;;30.20;21.00;;;;;;;-2.14;85.00;99589.35;87530;1294;98560;-78
2022/12/28 05:44:22;;;;;;;36.10;20.10;;;;;;;-2.06;85.13;99593.91;87543;1311;24262;-79
2022/12/28 05:46:30;;;;;;;37.50;21.70;;;;;;;-2.06;85.08;99592.20;87368;1291;23107;-77
2022/12/28 05:48:38;;;;;;;46.90;28.30;;;;;;;-2.07;84.97;99586.67;87355;1295;98366;-78
2022/12/28 05:50:40;;;;;;;45.70;27.10;;;;;;;-2.05;85.12;99595.13;87363;1293;22153;-77
2022/12/28 05:52:42;;;;;;;53.30;30.00;;;;;;;-2.05;85.09;99597.19;87488;1306;22633;-78
2022/12/28 05:54:44;;;;;;;52.00;31.20;;;;;;;-2.05;85.01;99594.44;87201;1310;99055;-79
2022/12/28 05:56:49;;;;;;;56.90;33.10;;;;;;;-2.08;85.02;99588.73;87350;1316;22504;-79
2022/12/28 05:59:00;;;;;;;55.40;33.80;;;;;;;-2.09;85.03;99589.05;87491;1314;22439;-78
2022/12/28 06:01:09;;;;;;;53.50;34.30;;;;;;;-2.10;84.95;99579.92;87154;1297;97977;-79
2022/12/28 06:03:13;;;;;;;58.70;36.80;;;;;;;-2.11;84.99;99576.98;87774;1311;31494;-78
2022/12/28 06:05:15;;;;;;;59.30;34.80;;;;;;;-2.15;84.97;99571.77;87374;1313;22555;-79
2022/12/28 06:07:20;;;;;;;66.00;38.10;;;;;;;-2.12;85.10;99577.13;87262;1291;97716;-78
2022/12/28 06:09:21;;;;;;;65.80;37.50;;;;;;;-2.14;84.94;99579.18;87363;1310;22788;-78
2022/12/28 06:11:26;;;;;;;73.80;38.00;;;;;;;-2.17;85.00;99575.52;87350;1304;24191;-78
2022/12/28 06:13:29;;;;;;;69.00;36.50;;;;;;;-2.18;85.00;99573.96;87407;1291;97936;-78
2022/12/28 06:15:32;;;;;;;66.90;36.40;;;;;;;-2.19;84.91;99571.87;87477;1316;22650;-78
2022/12/28 06:17:34;;;;;;;59.80;35.80;;;;;;;-2.21;84.85;99571.69;87496;1296;22494;-79
2022/12/28 06:19:35;;;;;;;59.10;34.90;;;;;;;-2.24;84.86;99575.44;87579;1302;98014;-80
2022/12/28 06:21:39;;;;;;;68.80;39.30;;;;;;;-2.28;84.94;99574.02;87496;1313;22981;-80
2022/12/28 06:23:42;;;;;;;63.10;38.90;;;;;;;-2.32;84.94;99576.19;87515;1284;24425;-79
2022/12/28 06:25:44;;;;;;;68.60;38.10;;;;;;;-2.34;84.79;99575.48;87700;1314;98337;-79
2022/12/28 06:27:46;;;;;;;68.80;39.20;;;;;;;-2.36;84.90;99574.25;87453;1316;24314;-79
2022/12/28 06:29:47;;;;;;;63.10;38.60;;;;;;;-2.36;84.85;99572.01;87514;1316;22585;-80
2022/12/28 06:31:50;;;;;;;65.90;41.00;;;;;;;-2.34;84.90;99569.80;87668;1304;98510;-80
2022/12/28 06:33:58;;;;;;;70.00;40.00;;;;;;;-2.39;85.02;99562.34;87822;1302;22561;-80
2022/12/28 06:36:00;;;;;;;71.50;39.20;;;;;;;-2.47;84.96;99557.41;88005;1310;22608;-80
2022/12/28 06:38:02;;;;;;;65.60;35.70;;;;;;;-2.36;85.09;99565.80;87688;1310;97710;-80
2022/12/28 06:40:05;;;;;;;67.20;38.70;;;;;;;-2.35;85.08;99562.22;87593;1316;22470;-80
2022/12/28 06:42:07;;;;;;;66.50;40.10;;;;;;;-2.36;84.99;99563.75;87357;1310;25997;-81
2022/12/28 06:44:10;;;;;;;64.80;38.70;;;;;;;-2.36;84.98;99559.10;87418;1314;97814;-81
2022/12/28 06:46:14;;;;;;;65.10;40.20;;;;;;;-2.36;85.05;99561.52;87517;1309;23450;-81
2022/12/28 06:48:15;;;;;;;66.90;39.40;;;;;;;-2.36;85.01;99552.90;87483;1316;24238;-82
2022/12/28 06:50:17;;;;;;;64.40;40.70;;;;;;;-2.35;84.99;99550.86;87594;1310;97779;-80
2022/12/28 06:52:19;;;;;;;69.30;42.70;;;;;;;-2.36;85.04;99552.55;87448;1317;24277;-80
2022/12/28 06:54:21;;;;;;;65.20;42.40;;;;;;;-2.36;85.02;99551.70;87715;1313;24270;-82
2022/12/28 06:56:28;;;;;;;64.70;38.40;;;;;;;-2.44;84.95;99541.27;87497;1315;22531;-82
2022/12/28 06:58:31;;;;;;;64.60;37.90;;;;;;;-2.35;85.04;99549.46;87569;1315;22478;-81
2022/12/28 07:00:32;;;;;;;63.40;39.50;;;;;;;-2.37;85.17;99545.83;87646;1318;98444;-81
2022/12/28 07:02:34;;;;;;;72.30;38.30;;;;;;;-2.37;85.02;99544.63;88157;1307;22473;-82
2022/12/28 07:04:36;;;;;;;60.10;38.30;;;;;;;-2.38;84.94;99536.86;88192;1309;22882;-81
2022/12/28 07:06:43;;;;;;;61.40;37.40;;;;;;;-2.38;85.00;99538.08;88062;1310;98108;-82
2022/12/28 07:08:48;;;;;;;54.70;34.20;;;;;;;-2.43;84.96;99530.61;88214;1310;22518;-82
2022/12/28 07:10:50;;;;;;;57.60;35.60;;;;;;;-2.40;84.92;99529.11;88132;1309;22598;-82
2022/12/28 07:12:55;;;;;;;61.10;38.20;;;;;;;-2.39;84.99;99526.36;88104;1314;97654;-81
2022/12/28 07:14:56;;;;;;;75.90;41.20;;;;;;;-2.35;85.13;99522.64;88442;1313;22516;-81
2022/12/28 07:16:58;;;;;;;66.40;42.80;;;;;;;-2.29;85.25;99523.40;88534;1310;22108;-81
2022/12/28 07:19:01;;;;;;;68.70;41.70;;;;;;;-2.25;85.30;99522.76;88563;1308;97875;-80
2022/12/28 07:21:15;;;;;;;69.40;41.70;;;;;;;-2.19;85.40;99522.98;88431;1305;22170;-80
2022/12/28 07:23:19;;;;;;;70.50;40.10;;;;;;;-2.14;85.38;99524.59;88509;1310;22127;-81
2022/12/28 07:25:23;;;;;;;73.70;36.00;;;;;;;-2.10;85.39;99523.11;88464;1309;97918;-81
2022/12/28 07:27:25;;;;;;;55.50;33.70;;;;;;;-2.06;85.49;99520.73;88459;1310;22068;-81
2022/12/28 07:29:27;;;;;;;58.60;32.50;;;;;;;-2.04;85.42;99515.94;88504;1309;22244;-81
2022/12/28 07:31:37;;;;;;;52.30;32.10;;;;;;;-2.00;85.46;99515.98;88378;1301;97985;-80
2022/12/28 07:33:39;;;;;;;68.80;32.40;;;;;;;-1.95;85.44;99517.60;88471;1310;22191;-80
2022/12/28 07:35:41;;;;;;;47.80;30.60;;;;;;;-1.90;85.49;99520.58;88498;1310;22519;-80
2022/12/28 07:37:44;;;;;;;50.80;31.30;;;;;;;-1.85;85.54;99513.21;88322;1306;97693;-80
2022/12/28 07:39:48;;;;;;;57.60;30.20;;;;;;;-1.81;85.64;99514.81;88249;1292;24533;-78
2022/12/28 07:41:49;;;;;;;53.70;31.40;;;;;;;-1.75;85.66;99514.01;88235;1313;22532;-80
2022/12/28 07:43:51;;;;;;;49.10;30.50;;;;;;;-1.71;85.61;99507.67;87881;1294;97708;-78
2022/12/28 07:46:09;;;;;;;58.00;31.40;;;;;;;-1.70;85.62;99499.23;87977;1296;23124;-78
2022/12/28 07:48:10;;;;;;;51.50;30.50;;;;;;;-1.60;85.59;99501.75;87961;1314;22508;-79
2022/12/28 07:50:12;;;;;;;51.00;28.10;;;;;;;-1.55;85.71;99502.31;87943;1293;97658;-79
2022/12/28 07:52:14;;;;;;;49.20;28.30;;;;;;;-1.49;85.76;99497.89;87835;1290;22992;-78
2022/12/28 07:54:15;;;;;;;45.80;26.80;;;;;;;-1.44;85.64;99499.14;87675;1278;22538;-79
2022/12/28 07:56:18;;;;;;;51.50;25.40;;;;;;;-1.40;85.71;99492.28;87542;1295;97800;-79
2022/12/28 07:58:20;;;;;;;51.20;27.80;;;;;;;-1.34;85.83;99500.44;87594;1306;22505;-79
2022/12/28 08:00:22;;;;;;;66.50;27.90;;;;;;;-1.29;85.74;99494.77;87500;1289;22806;-79
2022/12/28 08:02:23;;;;;;;54.90;25.90;;;;;;;-1.38;85.69;99470.23;87564;1292;22496;-78
2022/12/28 08:04:26;;;;;;;64.40;28.90;;;;;;;-1.18;85.71;99488.14;87554;1285;24253;-79
2022/12/28 08:06:29;;;;;;;68.70;29.80;;;;;;;-1.13;85.78;99490.25;87365;1295;98262;-78
2022/12/28 08:08:43;;;;;;;66.50;29.00;;;;;;;-1.09;85.85;99488.21;87541;1302;23738;-78
2022/12/28 08:10:45;;;;;;;57.80;28.60;;;;;;;-1.00;85.91;99493.96;87524;1295;25401;-77
2022/12/28 08:12:47;;;;;;;59.60;26.30;;;;;;;-0.96;85.87;99494.17;87529;1288;98474;-78
2022/12/28 08:14:48;;;;;;;61.10;27.30;;;;;;;-0.90;85.85;99493.35;87483;1295;23641;-78
2022/12/28 08:16:50;;;;;;;45.40;25.40;;;;;;;-0.85;85.79;99490.95;87583;1289;22487;-78
2022/12/28 08:18:53;;;;;;;55.90;26.60;;;;;;;-0.80;85.79;99486.34;87285;1316;98079;-79
2022/12/28 08:21:03;;;;;;;44.40;23.30;;;;;;;-0.76;85.89;99486.52;87423;1289;23563;-78
2022/12/28 08:23:05;;;;;;;47.70;23.70;;;;;;;-0.71;85.95;99478.96;87284;1290;22460;-80
2022/12/28 08:25:07;;;;;;;36.70;22.50;;;;;;;-0.66;85.76;99480.20;87346;1311;110461;-78
2022/12/28 08:27:09;;;;;;;39.00;20.90;;;;;;;-0.62;85.92;99483.32;87669;1289;25251;-79
2022/12/28 08:29:14;;;;;;;43.60;20.80;;;;;;;-0.57;86.04;99485.42;87426;1302;22687;-79
2022/12/28 08:31:22;;;;;;;40.50;22.10;;;;;;;-0.52;86.09;99482.17;87167;1287;97715;-78
2022/12/28 08:33:23;;;;;;;31.70;18.80;;;;;;;-0.47;86.07;99482.02;87545;1309;25030;-78
2022/12/28 08:35:25;;;;;;;31.70;18.20;;;;;;;-0.43;86.05;99481.52;87450;1304;22506;-80
2022/12/28 08:37:27;;;;;;;27.30;15.60;;;;;;;-0.40;86.02;99480.66;87359;1288;99131;-78
2022/12/28 08:39:31;;;;;;;30.50;16.80;;;;;;;-0.35;86.06;99480.00;87475;1287;22611;-78
2022/12/28 08:41:37;;;;;;;29.80;17.30;;;;;;;-0.30;85.96;99482.60;87545;1291;23559;-78
2022/12/28 08:43:39;;;;;;;28.60;19.20;;;;;;;-0.26;86.03;99481.25;87299;1295;97890;-79
2022/12/28 08:45:41;;;;;;;29.20;19.20;;;;;;;-0.22;86.11;99478.85;87242;1311;22528;-79
2022/12/28 08:47:42;;;;;;;27.80;20.80;;;;;;;-0.17;86.13;99485.59;87423;1292;22513;-78
2022/12/28 08:49:44;;;;;;;35.00;20.40;;;;;;;-0.14;86.08;99480.94;87386;1295;97777;-80
2022/12/28 08:51:47;;;;;;;43.10;21.30;;;;;;;-0.06;85.99;99485.98;87528;1316;22585;-79
2022/12/28 08:53:50;;;;;;;32.70;20.70;;;;;;;0.01;86.04;99485.81;87762;1293;22551;-80
2022/12/28 08:55:51;;;;;;;32.20;19.00;;;;;;;0.09;86.21;99483.25;87484;1310;97714;-80
2022/12/28 08:57:53;;;;;;;29.60;18.60;;;;;;;0.14;85.99;99481.18;88125;1294;22508;-80
2022/12/28 08:59:55;;;;;;;27.30;16.50;;;;;;;0.23;85.85;99487.59;88065;1296;22783;-80
2022/12/28 09:01:57;;;;;;;31.10;16.20;;;;;;;0.30;86.08;99485.88;88058;1303;98637;-79
2022/12/28 09:04:00;;;;;;;27.50;16.40;;;;;;;0.37;86.04;99488.48;87949;1297;22423;-79
2022/12/28 09:06:04;;;;;;;50.40;19.10;;;;;;;0.43;85.74;99484.16;87882;1303;23042;-79
2022/12/28 09:08:06;;;;;;;32.10;18.40;;;;;;;0.50;85.71;99484.34;88415;1309;97740;-79
2022/12/28 09:10:08;;;;;;;34.50;18.60;;;;;;;0.56;85.52;99480.39;87847;1302;22620;-80
2022/12/28 09:12:10;;;;;;;35.90;18.50;;;;;;;0.63;85.67;99477.43;88319;1310;22513;-79
2022/12/28 09:14:13;;;;;;;33.60;16.60;;;;;;;0.70;85.86;99478.64;87773;1306;98261;-80
2022/12/28 09:16:18;;;;;;;30.00;15.70;;;;;;;0.77;85.74;99477.43;87825;1310;22515;-80
2022/12/28 09:18:20;;;;;;;28.00;14.90;;;;;;;0.82;85.59;99476.91;87928;1297;22541;-79
2022/12/28 09:20:22;;;;;;;29.60;15.50;;;;;;;0.90;85.69;99475.01;87794;1291;98133;-80
2022/12/28 09:22:23;;;;;;;24.00;14.20;;;;;;;0.97;85.66;99469.46;87799;1301;22507;-78
2022/12/28 09:24:25;;;;;;;22.60;13.60;;;;;;;1.04;85.15;99473.09;87799;1285;97908;-78
2022/12/28 09:26:30;;;;;;;26.20;15.30;;;;;;;1.11;85.27;99475.84;87586;1298;22544;-79
2022/12/28 09:28:32;;;;;;;23.10;15.10;;;;;;;1.18;85.42;99470.63;87795;1293;23188;-79
2022/12/28 09:30:34;;;;;;;36.50;16.20;;;;;;;1.25;85.51;99466.64;87566;1304;97964;-79
2022/12/28 09:32:36;;;;;;;27.30;16.00;;;;;;;1.33;85.05;99467.48;87708;1285;22788;-79
2022/12/28 09:34:37;;;;;;;25.10;15.00;;;;;;;1.42;85.00;99469.02;87694;1298;22589;-79
2022/12/28 09:36:42;;;;;;;25.70;15.80;;;;;;;1.50;84.88;99468.13;87410;1295;97874;-78
2022/12/28 09:38:45;;;;;;;22.90;15.20;;;;;;;1.57;84.90;99466.88;87550;1291;22475;-78
2022/12/28 09:40:46;;;;;;;28.00;15.10;;;;;;;1.65;84.95;99464.60;87592;1292;24217;-78
2022/12/28 09:42:48;;;;;;;25.70;13.40;;;;;;;1.72;84.91;99464.40;87508;1295;98707;-78
2022/12/28 09:45:09;;;;;;;29.10;13.60;;;;;;;1.77;84.94;99460.91;87571;1312;22542;-78
2022/12/28 09:47:17;;;;;;;25.60;14.30;;;;;;;1.83;84.52;99462.80;87605;1293;22518;-78
2022/12/28 09:49:26;;;;;;;27.30;13.40;;;;;;;1.87;84.79;99457.73;87802;1309;97527;-78
2022/12/28 09:51:34;;;;;;;28.30;12.70;;;;;;;1.96;84.91;99453.02;88242;1292;22511;-78
2022/12/28 09:53:36;;;;;;;26.70;13.40;;;;;;;2.01;84.84;99447.96;88264;1309;22628;-78
2022/12/28 09:55:41;;;;;;;24.70;14.00;;;;;;;2.04;84.45;99440.50;88336;1294;97485;-78
2022/12/28 09:57:52;;;;;;;24.10;12.50;;;;;;;2.11;84.64;99443.23;88371;1308;22637;-78
2022/12/28 09:59:54;;;;;;;36.80;13.30;;;;;;;2.16;84.50;99439.90;88477;1301;22029;-78
2022/12/28 10:02:01;;;;;;;23.30;13.90;;;;;;;2.23;84.49;99441.06;88256;1309;97504;-79
2022/12/28 10:04:04;;;;;;;23.30;13.30;;;;;;;2.30;84.49;99434.77;88245;1293;22527;-78